createdAt,value
2022-08-25T16:05:53.509Z,27.31
2022-08-25T16:08:23.559Z,27.26
2022-08-25T16:10:52.636Z,27.24
2022-08-25T16:13:23.644Z,27.30
2022-08-25T16:15:54.159Z,27.23
2022-08-25T16:18:25.761Z,27.23
2022-08-25T16:20:54.821Z,27.29
2022-08-25T16:23:24.611Z,27.24
2022-08-25T16:25:52.883Z,27.21
2022-08-25T16:28:24.544Z,27.21
2022-08-25T16:30:53.978Z,27.21
2022-08-25T16:33:22.030Z,27.18
2022-08-25T16:35:50.134Z,27.19
2022-08-25T16:38:18.235Z,27.12
2022-08-25T16:40:47.239Z,27.11
2022-08-25T16:43:15.206Z,27.10
2022-08-25T16:45:43.242Z,27.10
2022-08-25T16:48:11.290Z,27.12
2022-08-25T16:50:40.342Z,27.05
2022-08-25T16:53:26.378Z,27.07
2022-08-25T16:56:03.942Z,27.05
2022-08-25T16:58:32.493Z,27.03
2022-08-25T17:01:13.258Z,27.01
2022-08-25T17:03:44.200Z,27.05
2022-08-25T17:06:12.646Z,27.04
2022-08-25T17:08:44.684Z,27.03
2022-08-25T17:11:16.781Z,27.02
2022-08-25T17:13:50.493Z,27.01
2022-08-25T17:16:18.600Z,26.95
2022-08-25T17:18:48.103Z,26.99
2022-08-25T17:21:24.579Z,26.95
2022-08-25T17:23:53.960Z,27.01
2022-08-25T17:26:27.697Z,26.96
2022-08-25T17:29:01.577Z,26.99
2022-08-25T17:31:30.785Z,26.93
2022-08-25T17:33:59.127Z,26.96
2022-08-25T17:36:27.507Z,26.93
2022-08-25T17:38:57.024Z,26.92
2022-08-25T17:41:25.290Z,26.91
2022-08-25T17:43:53.314Z,26.92
2022-08-25T17:46:21.816Z,26.89
2022-08-25T17:48:49.358Z,26.91
2022-08-25T17:51:17.477Z,26.85
2022-08-25T17:53:45.517Z,26.88
2022-08-25T17:56:16.559Z,26.83
2022-08-25T17:58:45.589Z,26.86
2022-08-25T18:01:22.398Z,26.91
2022-08-25T18:03:50.687Z,26.83
2022-08-25T18:06:18.642Z,26.83
2022-08-25T18:08:51.680Z,26.80
2022-08-25T18:11:25.813Z,26.82
2022-08-25T18:13:55.839Z,26.82
2022-08-25T18:16:23.923Z,26.80
2022-08-25T18:18:52.968Z,26.83
2022-08-25T18:21:22.411Z,26.82
2022-08-25T18:23:52.419Z,26.76
2022-08-25T18:26:25.612Z,26.75
2022-08-25T18:28:54.199Z,26.70
2022-08-25T18:31:23.402Z,26.74
2022-08-25T18:33:52.327Z,26.65
2022-08-25T18:36:23.711Z,26.68
2022-08-25T18:39:10.337Z,26.69
2022-08-25T18:41:40.000Z,26.64
2022-08-25T18:44:08.430Z,26.64
2022-08-25T18:46:39.545Z,26.64
2022-08-25T18:49:07.518Z,26.63
2022-08-25T18:51:36.566Z,26.65
2022-08-25T18:54:04.632Z,26.62
2022-08-25T18:56:32.662Z,26.61
2022-08-25T18:59:00.708Z,26.63
2022-08-25T19:01:29.091Z,26.54
2022-08-25T19:03:57.803Z,26.56
2022-08-25T19:06:25.864Z,26.56
2022-08-25T19:08:53.967Z,26.61
2022-08-25T19:11:22.164Z,26.54
2022-08-25T19:13:51.017Z,26.56
2022-08-25T19:16:31.094Z,26.56
2022-08-25T19:19:01.086Z,26.53
2022-08-25T19:21:33.382Z,26.52
2022-08-25T19:24:01.192Z,26.52
2022-08-25T19:26:31.920Z,26.52
2022-08-25T19:29:01.283Z,26.49
2022-08-25T19:31:33.000Z,26.49
2022-08-25T19:34:23.215Z,26.53
2022-08-25T19:36:51.645Z,26.49
2022-08-25T19:39:19.224Z,26.47
2022-08-25T19:41:47.530Z,26.45
2022-08-25T19:44:16.591Z,26.42
2022-08-25T19:46:48.730Z,26.46
2022-08-25T19:49:22.671Z,26.39
2022-08-25T19:51:52.223Z,26.40
2022-08-25T19:54:29.104Z,26.40
2022-08-25T19:56:56.843Z,26.40
2022-08-25T19:59:36.619Z,26.43
2022-08-25T20:02:12.932Z,26.38
2022-08-25T20:04:49.826Z,26.39
2022-08-25T20:07:22.079Z,26.41
2022-08-25T20:09:55.387Z,26.38
2022-08-25T20:12:26.088Z,26.45
2022-08-25T20:14:57.212Z,26.39
2022-08-25T20:17:28.451Z,26.41
2022-08-25T20:19:58.411Z,26.46
2022-08-25T20:22:31.395Z,26.40
2022-08-25T20:25:03.403Z,26.40
2022-08-25T20:27:47.373Z,26.39
2022-08-25T20:30:22.021Z,26.35
2022-08-25T20:32:50.693Z,26.31
2022-08-25T20:35:19.869Z,26.31
2022-08-25T20:37:54.644Z,26.30
2022-08-25T20:40:29.468Z,26.33
2022-08-25T20:42:59.584Z,26.28
2022-08-25T20:45:30.699Z,26.25
2022-08-25T20:48:01.473Z,26.31
2022-08-25T20:50:29.789Z,26.30
2022-08-25T20:53:00.933Z,26.24
2022-08-25T20:55:30.869Z,26.24
2022-08-25T20:58:01.118Z,26.22
2022-08-25T21:00:29.986Z,26.28
2022-08-25T21:02:58.026Z,26.24
2022-08-25T21:05:29.084Z,26.18
2022-08-25T21:07:57.114Z,26.21
2022-08-25T21:10:25.136Z,26.16
2022-08-25T21:12:54.280Z,26.23
2022-08-25T21:15:26.580Z,26.16
2022-08-25T21:17:56.987Z,26.22
2022-08-25T21:20:29.498Z,26.17
2022-08-25T21:23:01.367Z,26.17
2022-08-25T21:25:31.427Z,26.20
2022-08-25T21:28:00.329Z,26.16
2022-08-25T21:30:33.090Z,26.13
2022-08-25T21:33:00.760Z,26.13
2022-08-25T21:35:32.598Z,26.13
2022-08-25T21:38:04.529Z,26.15
2022-08-25T21:40:37.728Z,26.13
2022-08-25T21:43:06.881Z,26.16
2022-08-25T21:45:46.851Z,26.13
2022-08-25T21:48:19.586Z,26.17
2022-08-25T21:50:50.134Z,26.13
2022-08-25T21:53:20.055Z,26.21
2022-08-25T21:55:47.977Z,26.11
2022-08-25T21:58:16.026Z,26.13
2022-08-25T22:00:45.965Z,26.15
2022-08-25T22:03:16.188Z,26.16
2022-08-25T22:05:46.086Z,26.12
2022-08-25T22:08:17.231Z,26.17
2022-08-25T22:10:47.942Z,26.14
2022-08-25T22:13:17.301Z,26.19
2022-08-25T22:15:52.191Z,26.13
2022-08-25T22:18:23.034Z,26.14
2022-08-25T22:20:55.494Z,26.16
2022-08-25T22:23:28.357Z,26.18
2022-08-25T22:25:59.825Z,26.19
2022-08-25T22:28:31.457Z,26.13
2022-08-25T22:31:04.933Z,26.16
2022-08-25T22:33:37.568Z,26.16
2022-08-25T22:36:28.327Z,26.18
2022-08-25T22:38:59.949Z,26.14
2022-08-25T22:41:30.815Z,26.17
2022-08-25T22:44:04.892Z,26.14
2022-08-25T22:46:33.936Z,26.14
2022-08-25T22:49:03.987Z,26.13
2022-08-25T22:51:32.240Z,26.17
2022-08-25T22:54:04.038Z,26.14
2022-08-25T22:56:35.075Z,26.13
2022-08-25T22:59:09.384Z,26.13
2022-08-25T23:01:39.878Z,26.17
2022-08-25T23:04:14.795Z,26.16
2022-08-25T23:06:47.605Z,26.13
2022-08-25T23:09:19.597Z,26.17
2022-08-25T23:11:51.276Z,26.15
2022-08-25T23:14:23.553Z,26.19
2022-08-25T23:16:52.454Z,26.12
2022-08-25T23:19:28.099Z,26.12
2022-08-25T23:22:16.380Z,26.16
2022-08-25T23:24:48.719Z,26.11
2022-08-25T23:27:20.120Z,26.10
2022-08-25T23:29:51.491Z,26.10
2022-08-25T23:32:20.738Z,26.10
2022-08-25T23:34:48.787Z,26.12
2022-08-25T23:37:18.678Z,26.10
2022-08-25T23:39:50.264Z,26.14
2022-08-25T23:42:18.948Z,26.06
2022-08-25T23:44:47.000Z,26.12
2022-08-25T23:47:15.501Z,26.12
2022-08-25T23:49:45.067Z,26.13
2022-08-25T23:52:14.158Z,26.05
2022-08-25T23:54:46.397Z,26.08
2022-08-25T23:57:15.216Z,26.06
2022-08-25T23:59:46.301Z,26.06
